PWSweather.com
Personal Weather Stations
Station Observations
LW1DRJ
MorenoAR 17441

MorenoAR 17441

Lat: -34.6340099, Lon: -58.791382

Elevation: 19

Station Type: Fine Offset

http://www.lw1drj.com.ar/clima

High Low Average
Temperature 100.9°F38.3°F 75.4°F24.1°F 86.3°F30.2°F
Dew Point 74.1°F23.4°F 61.5°F16.4°F 70.2°F21.2°F
Winds 12.1 mph -19.5 mph - Calm Calm 3.3 mph 5.3 mph
Wind Gusts 22.1 mph35.6 mph 1.6 mph2.6 mph 7.7 mph12.4 mph
Humidity 85% 29% 61%
Pressure 29.81 in1009.50 in 29.57 in1001.40 in -
Precipitation 0.00 in0.00 in - -
Hour Temp Dew Point Humidity Winds Wind Gusts Pressure Precip Precip Rate Daily Precip Total
12:08 AM 83.7°F28.7°C 71.1°F21.7°C 66% 2.2 mph NE3.5 kmh NE 3.8 mph6.1 kmh 29.57 in1001.4 mb 0.00 in0.0 mm 0.00 in0.0 mm 0.00 in0.0 mm
12:18 AM 83.5°F28.6°C 71.4°F21.9°C 67% 0.7 mph WSW1.1 kmh WSW 3.8 mph6.1 kmh 29.57 in1001.4 mb 0.00 in0.0 mm 0.00 in0.0 mm 0.00 in0.0 mm
12:28 AM 83.3°F28.5°C 71.6°F22.0°C 68% 2.2 mph N3.5 kmh N 3.8 mph6.1 kmh 29.57 in1001.4 mb 0.00 in0.0 mm 0.00 in0.0 mm 0.00 in0.0 mm
12:38 AM 82.9°F28.3°C 71.3°F21.8°C 68% 1.6 mph N2.6 kmh N 4.5 mph7.2 kmh 29.57 in1001.4 mb 0.00 in0.0 mm 0.00 in0.0 mm 0.00 in0.0 mm
12:48 AM 83.3°F28.5°C 71.6°F22.0°C 68% 0.7 mph E1.1 kmh E 4.5 mph7.2 kmh 29.57 in1001.4 mb 0.00 in0.0 mm 0.00 in0.0 mm 0.00 in0.0 mm
12:58 AM 82.8°F28.2°C 71.5°F21.9°C 69% 1.6 mph NE2.6 kmh NE 4.5 mph7.2 kmh 29.57 in1001.4 mb 0.00 in0.0 mm 0.00 in0.0 mm 0.00 in0.0 mm
01:08 AM 82.8°F28.2°C 72.0°F22.2°C 70% 0.7 mph NW1.1 kmh NW 4.5 mph7.2 kmh 29.57 in1001.4 mb 0.00 in0.0 mm 0.00 in0.0 mm 0.00 in0.0 mm
01:18 AM 82.8°F28.2°C 72.0°F22.2°C 70% 1.6 mph NE2.6 kmh NE 3.8 mph6.1 kmh 29.57 in1001.4 mb 0.00 in0.0 mm 0.00 in0.0 mm 0.00 in0.0 mm
01:28 AM 82.0°F27.8°C 71.3°F21.8°C 70% 1.6 mph NE2.6 kmh NE 3.8 mph6.1 kmh 29.57 in1001.4 mb 0.00 in0.0 mm 0.00 in0.0 mm 0.00 in0.0 mm
01:38 AM 82.0°F27.8°C 71.7°F22.1°C 71% 0.7 mph N1.1 kmh N 3.1 mph5.0 kmh 29.57 in1001.4 mb 0.00 in0.0 mm 0.00 in0.0 mm 0.00 in0.0 mm
01:48 AM 82.2°F27.9°C 71.9°F22.2°C 71% 2.2 mph NE3.5 kmh NE 3.8 mph6.1 kmh 29.57 in1001.4 mb 0.00 in0.0 mm 0.00 in0.0 mm 0.00 in0.0 mm
01:58 AM 81.9°F27.7°C 71.9°F22.2°C 72% 0.7 mph E1.1 kmh E 3.8 mph6.1 kmh 29.59 in1002.0 mb 0.00 in0.0 mm 0.00 in0.0 mm 0.00 in0.0 mm
02:08 AM 81.5°F27.5°C 71.6°F22.0°C 72% 0.7 mph N1.1 kmh N 2.2 mph3.5 kmh 29.59 in1002.0 mb 0.00 in0.0 mm 0.00 in0.0 mm 0.00 in0.0 mm
02:18 AM 80.6°F27.0°C 71.1°F21.7°C 73% 2.2 mph E3.5 kmh E 3.8 mph6.1 kmh 29.60 in1002.4 mb 0.00 in0.0 mm 0.00 in0.0 mm 0.00 in0.0 mm
02:28 AM 81.7°F27.6°C 72.6°F22.6°C 74% Calm Calm 3.8 mph6.1 kmh 29.61 in1002.7 mb 0.00 in0.0 mm 0.00 in0.0 mm 0.00 in0.0 mm
02:38 AM 81.7°F27.6°C 72.6°F22.6°C 74% 0.7 mph E1.1 kmh E 3.1 mph5.0 kmh 29.62 in1003.0 mb 0.00 in0.0 mm 0.00 in0.0 mm 0.00 in0.0 mm
02:48 AM 81.3°F27.4°C 72.6°F22.6°C 75% 1.6 mph NE2.6 kmh NE 3.1 mph5.0 kmh 29.62 in1003.0 mb 0.00 in0.0 mm 0.00 in0.0 mm 0.00 in0.0 mm
02:58 AM 80.6°F27.0°C 72.3°F22.4°C 76% 0.7 mph NE1.1 kmh NE 3.1 mph5.0 kmh 29.62 in1003.0 mb 0.00 in0.0 mm 0.00 in0.0 mm 0.00 in0.0 mm
03:08 AM 81.1°F27.3°C 72.9°F22.7°C 76% Calm Calm 2.2 mph3.5 kmh 29.63 in1003.4 mb 0.00 in0.0 mm 0.00 in0.0 mm 0.00 in0.0 mm
03:18 AM 80.6°F27.0°C 72.7°F22.6°C 77% 2.2 mph N3.5 kmh N 4.5 mph7.2 kmh 29.63 in1003.4 mb 0.00 in0.0 mm 0.00 in0.0 mm 0.00 in0.0 mm
03:28 AM 80.8°F27.1°C 72.9°F22.7°C 77% 0.7 mph N1.1 kmh N 4.5 mph7.2 kmh 29.64 in1003.7 mb 0.00 in0.0 mm 0.00 in0.0 mm 0.00 in0.0 mm
03:38 AM 80.4°F26.9°C 72.9°F22.7°C 78% Calm Calm 2.2 mph3.5 kmh 29.64 in1003.7 mb 0.00 in0.0 mm 0.00 in0.0 mm 0.00 in0.0 mm
03:48 AM 79.5°F26.4°C 72.4°F22.4°C 79% Calm Calm 2.2 mph3.5 kmh 29.64 in1003.7 mb 0.00 in0.0 mm 0.00 in0.0 mm 0.00 in0.0 mm
03:58 AM 80.1°F26.7°C 73.3°F22.9°C 80% Calm Calm 1.6 mph2.6 kmh 29.64 in1003.7 mb 0.00 in0.0 mm 0.00 in0.0 mm 0.00 in0.0 mm
04:08 AM 79.7°F26.5°C 73.0°F22.8°C 80% Calm Calm 1.6 mph2.6 kmh 29.64 in1003.7 mb 0.00 in0.0 mm 0.00 in0.0 mm 0.00 in0.0 mm
04:18 AM 79.5°F26.4°C 72.8°F22.7°C 80% 1.6 mph SW2.6 kmh SW 3.1 mph5.0 kmh 29.66 in1004.4 mb 0.00 in0.0 mm 0.00 in0.0 mm 0.00 in0.0 mm
04:28 AM 79.7°F26.5°C 73.3°F22.9°C 81% 1.6 mph NW2.6 kmh NW 3.1 mph5.0 kmh 29.66 in1004.4 mb 0.00 in0.0 mm 0.00 in0.0 mm 0.00 in0.0 mm
04:38 AM 79.3°F26.3°C 73.4°F23.0°C 82% 0.7 mph W1.1 kmh W 2.2 mph3.5 kmh 29.66 in1004.4 mb 0.00 in0.0 mm 0.00 in0.0 mm 0.00 in0.0 mm
04:48 AM 79.0°F26.1°C 73.0°F22.8°C 82% 0.7 mph S1.1 kmh S 2.2 mph3.5 kmh 29.66 in1004.4 mb 0.00 in0.0 mm 0.00 in0.0 mm 0.00 in0.0 mm
04:58 AM 78.4°F25.8°C 73.2°F22.9°C 84% 1.6 mph SW2.6 kmh SW 2.2 mph3.5 kmh 29.67 in1004.7 mb 0.00 in0.0 mm 0.00 in0.0 mm 0.00 in0.0 mm
05:08 AM 78.6°F25.9°C 73.7°F23.2°C 85% 3.1 mph E5.0 kmh E 5.4 mph8.7 kmh 29.68 in1005.1 mb 0.00 in0.0 mm 0.00 in0.0 mm 0.00 in0.0 mm
05:18 AM 78.1°F25.6°C 72.8°F22.7°C 84% 4.5 mph E7.2 kmh E 9.2 mph14.8 kmh 29.69 in1005.4 mb 0.00 in0.0 mm 0.00 in0.0 mm 0.00 in0.0 mm
05:28 AM 78.3°F25.7°C 72.7°F22.6°C 83% 2.2 mph N3.5 kmh N 9.2 mph14.8 kmh 29.70 in1005.8 mb 0.00 in0.0 mm 0.00 in0.0 mm 0.00 in0.0 mm
05:38 AM 77.7°F25.4°C 71.4°F21.9°C 81% 5.4 mph SE8.7 kmh SE 8.3 mph13.4 kmh 29.71 in1006.1 mb 0.00 in0.0 mm 0.00 in0.0 mm 0.00 in0.0 mm
05:48 AM 77.4°F25.2°C 70.0°F21.1°C 78% 6.9 mph SE11.1 kmh SE 11.4 mph18.3 kmh 29.72 in1006.4 mb 0.00 in0.0 mm 0.00 in0.0 mm 0.00 in0.0 mm
05:58 AM 77.0°F25.0°C 67.7°F19.8°C 73% 5.4 mph NNW8.7 kmh NNW 11.4 mph18.3 kmh 29.73 in1006.8 mb 0.00 in0.0 mm 0.00 in0.0 mm 0.00 in0.0 mm
06:08 AM 76.1°F24.5°C 66.8°F19.3°C 73% 4.5 mph SE7.2 kmh SE 7.6 mph12.2 kmh 29.73 in1006.8 mb 0.00 in0.0 mm 0.00 in0.0 mm 0.00 in0.0 mm
06:18 AM 75.4°F24.1°C 65.7°F18.7°C 72% 6.0 mph E9.7 kmh E 9.8 mph15.8 kmh 29.74 in1007.1 mb 0.00 in0.0 mm 0.00 in0.0 mm 0.00 in0.0 mm
06:28 AM 75.9°F24.4°C 65.8°F18.8°C 71% 5.4 mph SE8.7 kmh SE 9.8 mph15.8 kmh 29.75 in1007.5 mb 0.00 in0.0 mm 0.00 in0.0 mm 0.00 in0.0 mm
06:38 AM 75.6°F24.2°C 64.7°F18.2°C 69% 5.4 mph SE8.7 kmh SE 9.8 mph15.8 kmh 29.75 in1007.5 mb 0.00 in0.0 mm 0.00 in0.0 mm 0.00 in0.0 mm
06:48 AM 75.4°F24.1°C 64.5°F18.1°C 69% 4.5 mph SE7.2 kmh SE 9.8 mph15.8 kmh 29.75 in1007.5 mb 0.00 in0.0 mm 0.00 in0.0 mm 0.00 in0.0 mm
06:58 AM 76.1°F24.5°C 64.8°F18.2°C 68% 4.5 mph SE7.2 kmh SE 9.8 mph15.8 kmh 29.75 in1007.5 mb 0.00 in0.0 mm 0.00 in0.0 mm 0.00 in0.0 mm
07:20 AM 75.4°F24.1°C 62.8°F17.1°C 65% 10.7 mph SSE17.2 kmh SSE 14.5 mph23.3 kmh 29.75 in1007.5 mb 0.00 in0.0 mm 0.00 in0.0 mm 0.00 in0.0 mm
07:40 AM 76.3°F24.6°C 63.6°F17.6°C 65% 12.1 mph ESE19.5 kmh ESE 19.0 mph30.6 kmh 29.73 in1006.8 mb 0.00 in0.0 mm 0.00 in0.0 mm 0.00 in0.0 mm
08:00 AM 76.6°F24.8°C 64.0°F17.8°C 65% 8.3 mph ESE13.4 kmh ESE 19.7 mph31.7 kmh 29.74 in1007.1 mb 0.00 in0.0 mm 0.00 in0.0 mm 0.00 in0.0 mm
08:20 AM 76.8°F24.9°C 63.3°F17.4°C 63% 9.8 mph SE15.8 kmh SE 15.2 mph24.5 kmh 29.75 in1007.5 mb 0.00 in0.0 mm 0.00 in0.0 mm 0.00 in0.0 mm
08:40 AM 77.9°F25.5°C 63.4°F17.4°C 61% 6.9 mph SE11.1 kmh SE 17.4 mph28.0 kmh 29.76 in1007.8 mb 0.00 in0.0 mm 0.00 in0.0 mm 0.00 in0.0 mm
09:00 AM 78.4°F25.8°C 62.9°F17.2°C 59% 7.6 mph SE12.2 kmh SE 15.2 mph24.5 kmh 29.79 in1008.8 mb 0.00 in0.0 mm 0.00 in0.0 mm 0.00 in0.0 mm
09:20 AM 79.3°F26.3°C 64.2°F17.9°C 60% 6.9 mph E11.1 kmh E 14.5 mph23.3 kmh 29.80 in1009.1 mb 0.00 in0.0 mm 0.00 in0.0 mm 0.00 in0.0 mm
09:40 AM 79.7°F26.5°C 65.1°F18.4°C 61% 6.0 mph E9.7 kmh E 13.6 mph21.9 kmh 29.81 in1009.5 mb 0.00 in0.0 mm 0.00 in0.0 mm 0.00 in0.0 mm
10:00 AM 83.8°F28.8°C 67.0°F19.4°C 57% 11.4 mph ESE18.3 kmh ESE 20.6 mph33.2 kmh 29.81 in1009.5 mb 0.00 in0.0 mm 0.00 in0.0 mm 0.00 in0.0 mm
10:20 AM 84.4°F29.1°C 69.0°F20.6°C 60% 8.3 mph SE13.4 kmh SE 19.0 mph30.6 kmh 29.80 in1009.1 mb 0.00 in0.0 mm 0.00 in0.0 mm 0.00 in0.0 mm
10:40 AM 85.5°F29.7°C 70.5°F21.4°C 61% 7.6 mph E12.2 kmh E 19.0 mph30.6 kmh 29.79 in1008.8 mb 0.00 in0.0 mm 0.00 in0.0 mm 0.00 in0.0 mm
11:00 AM 86.2°F30.1°C 70.2°F21.2°C 59% 9.8 mph E15.8 kmh E 22.1 mph35.6 kmh 29.78 in1008.5 mb 0.00 in0.0 mm 0.00 in0.0 mm 0.00 in0.0 mm
11:20 AM 86.2°F30.1°C 71.2°F21.8°C 61% 6.0 mph E9.7 kmh E 19.0 mph30.6 kmh 29.78 in1008.5 mb 0.00 in0.0 mm 0.00 in0.0 mm 0.00 in0.0 mm
11:40 AM 88.0°F31.1°C 71.3°F21.8°C 58% 6.0 mph E9.7 kmh E 13.0 mph20.9 kmh 29.77 in1008.1 mb 0.00 in0.0 mm 0.00 in0.0 mm 0.00 in0.0 mm
12:00 PM 89.2°F31.8°C 71.5°F21.9°C 56% 4.5 mph E7.2 kmh E 15.2 mph24.5 kmh 29.76 in1007.8 mb 0.00 in0.0 mm 0.00 in0.0 mm 0.00 in0.0 mm
12:20 PM 90.0°F32.2°C 71.1°F21.7°C 54% 7.6 mph ENE12.2 kmh ENE 19.0 mph30.6 kmh 29.75 in1007.5 mb 0.00 in0.0 mm 0.00 in0.0 mm 0.00 in0.0 mm
12:40 PM 91.0°F32.8°C 72.1°F22.3°C 54% 4.5 mph E7.2 kmh E 13.6 mph21.9 kmh 29.74 in1007.1 mb 0.00 in0.0 mm 0.00 in0.0 mm 0.00 in0.0 mm
01:00 PM 91.0°F32.8°C 71.0°F21.7°C 52% 0.7 mph E1.1 kmh E 14.5 mph23.3 kmh 29.73 in1006.8 mb 0.00 in0.0 mm 0.00 in0.0 mm 0.00 in0.0 mm
01:20 PM 90.9°F32.7°C 70.2°F21.2°C 51% 7.6 mph ENE12.2 kmh ENE 13.0 mph20.9 kmh 29.72 in1006.4 mb 0.00 in0.0 mm 0.00 in0.0 mm 0.00 in0.0 mm
01:40 PM 90.3°F32.4°C 71.4°F21.9°C 54% 4.5 mph ENE7.2 kmh ENE 11.4 mph18.3 kmh 29.71 in1006.1 mb 0.00 in0.0 mm 0.00 in0.0 mm 0.00 in0.0 mm
02:00 PM 90.7°F32.6°C 71.7°F22.1°C 54% 4.5 mph E7.2 kmh E 13.0 mph20.9 kmh 29.70 in1005.8 mb 0.00 in0.0 mm 0.00 in0.0 mm 0.00 in0.0 mm
02:20 PM 91.2°F32.9°C 72.2°F22.3°C 54% 1.6 mph ENE2.6 kmh ENE 12.1 mph19.5 kmh 29.70 in1005.8 mb 0.00 in0.0 mm 0.00 in0.0 mm 0.00 in0.0 mm
02:40 PM 93.9°F34.4°C 72.5°F22.5°C 50% 3.1 mph NE5.0 kmh NE 9.2 mph14.8 kmh 29.68 in1005.1 mb 0.00 in0.0 mm 0.00 in0.0 mm 0.00 in0.0 mm
02:58 PM 97.2°F36.2°C 72.3°F22.4°C 45% 3.1 mph ENE5.0 kmh ENE 6.9 mph11.1 kmh 29.68 in1005.1 mb 0.00 in0.0 mm 0.00 in0.0 mm 0.00 in0.0 mm
03:08 PM 96.8°F36.0°C 72.6°F22.6°C 46% 3.8 mph SE6.1 kmh SE 6.9 mph11.1 kmh 29.68 in1005.1 mb 0.00 in0.0 mm 0.00 in0.0 mm 0.00 in0.0 mm
03:18 PM 96.4°F35.8°C 72.9°F22.7°C 47% 3.8 mph NE6.1 kmh NE 8.3 mph13.4 kmh 29.67 in1004.7 mb 0.00 in0.0 mm 0.00 in0.0 mm 0.00 in0.0 mm
03:28 PM 95.7°F35.4°C 72.9°F22.7°C 48% 3.1 mph NW5.0 kmh NW 8.3 mph13.4 kmh 29.67 in1004.7 mb 0.00 in0.0 mm 0.00 in0.0 mm 0.00 in0.0 mm
03:38 PM 95.2°F35.1°C 73.0°F22.8°C 49% 0.7 mph SW1.1 kmh SW 4.5 mph7.2 kmh 29.66 in1004.4 mb 0.00 in0.0 mm 0.00 in0.0 mm 0.00 in0.0 mm
03:48 PM 95.4°F35.2°C 73.2°F22.9°C 49% 4.5 mph S7.2 kmh S 6.9 mph11.1 kmh 29.66 in1004.4 mb 0.00 in0.0 mm 0.00 in0.0 mm 0.00 in0.0 mm
03:58 PM 95.2°F35.1°C 72.4°F22.4°C 48% 4.5 mph N7.2 kmh N 6.9 mph11.1 kmh 29.65 in1004.1 mb 0.00 in0.0 mm 0.00 in0.0 mm 0.00 in0.0 mm
04:08 PM 96.1°F35.6°C 73.2°F22.9°C 48% 3.8 mph SE6.1 kmh SE 6.9 mph11.1 kmh 29.65 in1004.1 mb 0.00 in0.0 mm 0.00 in0.0 mm 0.00 in0.0 mm
04:18 PM 95.7°F35.4°C 72.9°F22.7°C 48% 4.5 mph N7.2 kmh N 10.7 mph17.2 kmh 29.65 in1004.1 mb 0.00 in0.0 mm 0.00 in0.0 mm 0.00 in0.0 mm
04:28 PM 96.3°F35.7°C 72.8°F22.7°C 47% 3.1 mph E5.0 kmh E 10.7 mph17.2 kmh 29.64 in1003.7 mb 0.00 in0.0 mm 0.00 in0.0 mm 0.00 in0.0 mm
04:38 PM 98.1°F36.7°C 73.1°F22.8°C 45% 2.2 mph E3.5 kmh E 5.4 mph8.7 kmh 29.64 in1003.7 mb 0.00 in0.0 mm 0.00 in0.0 mm 0.00 in0.0 mm
04:48 PM 97.0°F36.1°C 72.1°F22.3°C 45% 2.2 mph N3.5 kmh N 4.5 mph7.2 kmh 29.64 in1003.7 mb 0.00 in0.0 mm 0.00 in0.0 mm 0.00 in0.0 mm
04:58 PM 95.2°F35.1°C 73.0°F22.8°C 49% 3.1 mph E5.0 kmh E 5.4 mph8.7 kmh 29.64 in1003.7 mb 0.00 in0.0 mm 0.00 in0.0 mm 0.00 in0.0 mm
05:08 PM 97.7°F36.5°C 74.1°F23.4°C 47% 2.2 mph NW3.5 kmh NW 5.4 mph8.7 kmh 29.64 in1003.7 mb 0.00 in0.0 mm 0.00 in0.0 mm 0.00 in0.0 mm
05:18 PM 100.9°F38.3°C 70.7°F21.5°C 38% 5.4 mph SE8.7 kmh SE 7.6 mph12.2 kmh 29.63 in1003.4 mb 0.00 in0.0 mm 0.00 in0.0 mm 0.00 in0.0 mm
05:28 PM 99.9°F37.7°C 71.9°F22.2°C 41% 1.6 mph ESE2.6 kmh ESE 7.6 mph12.2 kmh 29.63 in1003.4 mb 0.00 in0.0 mm 0.00 in0.0 mm 0.00 in0.0 mm
05:38 PM 99.9°F37.7°C 64.7°F18.2°C 32% 1.6 mph NE2.6 kmh NE 5.4 mph8.7 kmh 29.64 in1003.7 mb 0.00 in0.0 mm 0.00 in0.0 mm 0.00 in0.0 mm
05:48 PM 97.7°F36.5°C 63.7°F17.6°C 33% 1.6 mph NW2.6 kmh NW 5.4 mph8.7 kmh 29.64 in1003.7 mb 0.00 in0.0 mm 0.00 in0.0 mm 0.00 in0.0 mm
05:58 PM 97.7°F36.5°C 62.9°F17.2°C 32% 2.2 mph E3.5 kmh E 3.8 mph6.1 kmh 29.64 in1003.7 mb 0.00 in0.0 mm 0.00 in0.0 mm 0.00 in0.0 mm
06:08 PM 97.0°F36.1°C 62.2°F16.8°C 32% 4.5 mph SE7.2 kmh SE 7.6 mph12.2 kmh 29.63 in1003.4 mb 0.00 in0.0 mm 0.00 in0.0 mm 0.00 in0.0 mm
06:18 PM 99.3°F37.4°C 61.5°F16.4°C 29% 4.5 mph NE7.2 kmh NE 7.6 mph12.2 kmh 29.63 in1003.4 mb 0.00 in0.0 mm 0.00 in0.0 mm 0.00 in0.0 mm
06:28 PM 99.0°F37.2°C 62.1°F16.7°C 30% 2.2 mph N3.5 kmh N 6.9 mph11.1 kmh 29.63 in1003.4 mb 0.00 in0.0 mm 0.00 in0.0 mm 0.00 in0.0 mm
06:38 PM 98.4°F36.9°C 66.1°F18.9°C 35% 5.4 mph E8.7 kmh E 8.3 mph13.4 kmh 29.63 in1003.4 mb 0.00 in0.0 mm 0.00 in0.0 mm 0.00 in0.0 mm
06:48 PM 96.3°F35.7°C 68.0°F20.0°C 40% 2.2 mph NE3.5 kmh NE 8.3 mph13.4 kmh 29.63 in1003.4 mb 0.00 in0.0 mm 0.00 in0.0 mm 0.00 in0.0 mm
06:58 PM 94.5°F34.7°C 64.9°F18.3°C 38% 3.1 mph NE5.0 kmh NE 6.0 mph9.7 kmh 29.64 in1003.7 mb 0.00 in0.0 mm 0.00 in0.0 mm 0.00 in0.0 mm
07:08 PM 93.7°F34.3°C 64.3°F17.9°C 38% 3.1 mph NE5.0 kmh NE 6.0 mph9.7 kmh 29.63 in1003.4 mb 0.00 in0.0 mm 0.00 in0.0 mm 0.00 in0.0 mm
07:18 PM 93.0°F33.9°C 66.5°F19.2°C 42% 1.6 mph NE2.6 kmh NE 6.0 mph9.7 kmh 29.63 in1003.4 mb 0.00 in0.0 mm 0.00 in0.0 mm 0.00 in0.0 mm
07:28 PM 91.4°F33.0°C 69.0°F20.6°C 48% 2.2 mph E3.5 kmh E 3.8 mph6.1 kmh 29.63 in1003.4 mb 0.00 in0.0 mm 0.00 in0.0 mm 0.00 in0.0 mm
07:38 PM 90.3°F32.4°C 70.9°F21.6°C 53% 2.2 mph NE3.5 kmh NE 3.8 mph6.1 kmh 29.63 in1003.4 mb 0.00 in0.0 mm 0.00 in0.0 mm 0.00 in0.0 mm
07:48 PM 89.2°F31.8°C 71.5°F21.9°C 56% 3.8 mph NE6.1 kmh NE 6.0 mph9.7 kmh 29.63 in1003.4 mb 0.00 in0.0 mm 0.00 in0.0 mm 0.00 in0.0 mm
07:58 PM 88.9°F31.6°C 72.2°F22.3°C 58% 1.6 mph NE2.6 kmh NE 6.0 mph9.7 kmh 29.63 in1003.4 mb 0.00 in0.0 mm 0.00 in0.0 mm 0.00 in0.0 mm
08:08 PM 88.0°F31.1°C 72.4°F22.4°C 60% 1.6 mph E2.6 kmh E 4.5 mph7.2 kmh 29.63 in1003.4 mb 0.00 in0.0 mm 0.00 in0.0 mm 0.00 in0.0 mm
08:18 PM 87.4°F30.8°C 72.3°F22.4°C 61% 1.6 mph NE2.6 kmh NE 4.5 mph7.2 kmh 29.63 in1003.4 mb 0.00 in0.0 mm 0.00 in0.0 mm 0.00 in0.0 mm
08:40 PM 86.4°F30.2°C 72.3°F22.4°C 63% 0.7 mph E1.1 kmh E 4.5 mph7.2 kmh 29.64 in1003.7 mb 0.00 in0.0 mm 0.00 in0.0 mm 0.00 in0.0 mm
09:00 PM 86.0°F30.0°C 72.9°F22.7°C 65% 1.6 mph ENE2.6 kmh ENE 5.4 mph8.7 kmh 29.65 in1004.1 mb 0.00 in0.0 mm 0.00 in0.0 mm 0.00 in0.0 mm
09:20 PM 84.9°F29.4°C 71.8°F22.1°C 65% 1.6 mph ENE2.6 kmh ENE 4.5 mph7.2 kmh 29.65 in1004.1 mb 0.00 in0.0 mm 0.00 in0.0 mm 0.00 in0.0 mm
09:40 PM 85.8°F29.9°C 72.7°F22.6°C 65% 0.7 mph E1.1 kmh E 3.8 mph6.1 kmh 29.66 in1004.4 mb 0.00 in0.0 mm 0.00 in0.0 mm 0.00 in0.0 mm
10:00 PM 85.5°F29.7°C 72.8°F22.7°C 66% Calm Calm 3.8 mph6.1 kmh 29.68 in1005.1 mb 0.00 in0.0 mm 0.00 in0.0 mm 0.00 in0.0 mm
10:20 PM 84.9°F29.4°C 72.7°F22.6°C 67% 0.7 mph SE1.1 kmh SE 2.2 mph3.5 kmh 29.67 in1004.7 mb 0.00 in0.0 mm 0.00 in0.0 mm 0.00 in0.0 mm
10:40 PM 84.6°F29.2°C 72.8°F22.7°C 68% 1.6 mph ESE2.6 kmh ESE 3.1 mph5.0 kmh 29.67 in1004.7 mb 0.00 in0.0 mm 0.00 in0.0 mm 0.00 in0.0 mm